createdAt,value
2023-03-26T00:01:25.115Z,83.08
2023-03-26T00:03:54.062Z,83.50
2023-03-26T00:06:23.417Z,83.96
2023-03-26T00:08:50.396Z,84.28
2023-03-26T00:11:19.558Z,84.11
2023-03-26T00:13:47.872Z,84.16
2023-03-26T00:16:17.269Z,84.37
2023-03-26T00:18:44.699Z,84.67
2023-03-26T00:21:15.403Z,84.80
2023-03-26T00:23:43.399Z,85.25
2023-03-26T00:26:11.380Z,85.28
2023-03-26T00:28:40.743Z,85.39
2023-03-26T00:31:09.305Z,85.22
2023-03-26T00:33:40.921Z,85.22
2023-03-26T00:36:14.932Z,85.12
2023-03-26T00:38:43.223Z,84.71
2023-03-26T00:41:23.334Z,84.56
2023-03-26T00:43:53.649Z,83.95
2023-03-26T00:46:20.974Z,83.84
2023-03-26T00:48:48.320Z,83.54
2023-03-26T00:51:17.743Z,83.51
2023-03-26T00:53:46.523Z,83.10
2023-03-26T00:56:14.190Z,82.81
2023-03-26T00:58:41.283Z,82.54
2023-03-26T01:01:14.011Z,82.14
2023-03-26T01:03:50.369Z,82.06
2023-03-26T01:06:28.134Z,81.24
2023-03-26T01:09:00.509Z,81.41
2023-03-26T01:11:33.761Z,81.70
2023-03-26T01:14:07.561Z,81.61
2023-03-26T01:16:42.440Z,81.65
2023-03-26T01:19:21.420Z,81.86
2023-03-26T01:21:49.192Z,82.27
2023-03-26T01:24:16.423Z,82.81
2023-03-26T01:26:58.706Z,83.10
2023-03-26T01:29:31.967Z,82.81
2023-03-26T01:32:32.971Z,82.78
2023-03-26T01:35:14.833Z,82.74
2023-03-26T01:38:11.077Z,82.91
2023-03-26T01:40:55.142Z,83.08
2023-03-26T01:43:49.504Z,83.19
2023-03-26T01:46:17.941Z,83.36
2023-03-26T01:48:46.393Z,83.67
2023-03-26T01:51:15.005Z,84.08
2023-03-26T01:53:45.233Z,84.22
2023-03-26T01:56:47.464Z,84.98
2023-03-26T01:59:23.208Z,85.50
2023-03-26T02:02:14.392Z,86.11
2023-03-26T02:04:59.751Z,86.75
2023-03-26T03:39:36.137Z,92.53
2023-03-26T03:42:03.962Z,92.17
2023-03-26T03:44:31.360Z,91.94
2023-03-26T03:46:59.433Z,91.85
2023-03-26T03:49:26.760Z,91.80
2023-03-26T03:51:57.676Z,91.74
2023-03-26T03:54:30.729Z,91.75
2023-03-26T03:57:07.173Z,91.78
2023-03-26T03:59:39.089Z,91.76
2023-03-26T05:20:05.221Z,87.38
2023-03-26T05:22:32.987Z,87.71
2023-03-26T05:25:23.062Z,88.00
2023-03-26T05:27:50.035Z,88.37
2023-03-26T05:30:21.427Z,88.55
2023-03-26T05:32:53.693Z,88.60
2023-03-26T05:35:25.867Z,88.11
2023-03-26T05:37:53.127Z,88.08
2023-03-26T05:40:23.546Z,87.33
2023-03-26T05:43:00.691Z,87.00
2023-03-26T05:45:42.346Z,86.46
2023-03-26T05:48:24.853Z,85.80
2023-03-26T05:50:55.021Z,85.56
2023-03-26T05:53:23.822Z,85.49
2023-03-26T05:56:09.865Z,84.41
2023-03-26T05:58:56.614Z,84.42
2023-03-26T06:01:44.940Z,83.88
2023-03-26T06:04:17.958Z,82.28
2023-03-26T06:06:57.299Z,81.17
2023-03-26T06:09:24.314Z,79.97
2023-03-26T06:11:51.705Z,80.01
2023-03-26T06:14:18.737Z,78.95
2023-03-26T06:17:06.361Z,80.20
2023-03-26T06:19:53.244Z,79.62
2023-03-26T06:22:31.807Z,78.90
2023-03-26T06:25:27.887Z,78.35
2023-03-26T06:28:04.915Z,78.23
2023-03-26T06:30:38.302Z,78.25
2023-03-26T06:33:12.949Z,78.62
2023-03-26T06:35:46.270Z,78.35
2023-03-26T06:38:14.980Z,77.65
2023-03-26T06:40:42.202Z,76.61
2023-03-26T06:43:33.816Z,76.56
2023-03-26T06:46:16.244Z,76.28
2023-03-26T06:48:43.631Z,75.00
2023-03-26T06:51:13.311Z,73.71
2023-03-26T06:54:12.767Z,73.70
2023-03-26T06:57:01.686Z,72.27
2023-03-26T07:00:08.862Z,72.43
2023-03-26T07:02:54.764Z,73.35
2023-03-26T07:05:43.068Z,72.90
2023-03-26T07:08:10.088Z,73.05
2023-03-26T07:10:56.414Z,73.17
2023-03-26T07:13:47.899Z,73.37
2023-03-26T07:16:34.622Z,70.36
2023-03-26T07:19:34.131Z,69.72
2023-03-26T07:22:01.561Z,70.09
2023-03-26T07:24:58.259Z,69.72
2023-03-26T07:28:01.325Z,69.33
2023-03-26T07:30:57.596Z,69.39
2023-03-26T07:33:41.352Z,68.80
2023-03-26T07:36:46.075Z,67.36
2023-03-26T07:39:46.308Z,67.04
2023-03-26T07:42:57.956Z,66.42
2023-03-26T07:45:57.833Z,65.49
2023-03-26T07:48:50.318Z,66.17
2023-03-26T07:51:42.042Z,65.73
2023-03-26T07:54:15.352Z,66.05
2023-03-26T07:57:18.435Z,59.93
2023-03-26T08:00:22.663Z,59.32
2023-03-26T08:03:09.148Z,58.10
2023-03-26T08:06:33.441Z,53.96
2023-03-26T08:09:43.693Z,53.83
2023-03-26T08:13:00.626Z,52.94
2023-03-26T08:15:42.119Z,53.25
2023-03-26T08:18:35.742Z,52.17
2023-03-26T08:21:26.451Z,53.14
2023-03-26T08:24:05.058Z,52.03
2023-03-26T08:27:08.986Z,50.68
2023-03-26T08:29:50.190Z,52.48
2023-03-26T08:32:19.344Z,50.64
2023-03-26T08:34:47.092Z,50.92
2023-03-26T08:37:14.453Z,50.93
2023-03-26T08:39:42.599Z,50.23
2023-03-26T08:42:34.829Z,47.90
2023-03-26T08:45:22.143Z,48.27
2023-03-26T08:48:04.583Z,47.03
2023-03-26T08:50:41.889Z,46.55
2023-03-26T08:53:18.688Z,45.89
2023-03-26T08:55:57.370Z,46.74
2023-03-26T08:58:43.344Z,46.14
2023-03-26T09:01:46.432Z,44.88
2023-03-26T09:04:41.750Z,44.56
2023-03-26T09:07:14.888Z,44.92
2023-03-26T09:10:06.496Z,44.82
2023-03-26T09:12:56.235Z,44.57
2023-03-26T09:15:45.104Z,43.67
2023-03-26T09:18:33.183Z,43.14
2023-03-26T09:21:28.040Z,40.87
2023-03-26T09:24:27.927Z,41.36
2023-03-26T09:26:55.298Z,41.41
2023-03-26T09:29:40.869Z,40.96
2023-03-26T09:32:08.096Z,41.12
2023-03-26T09:35:09.591Z,40.01
2023-03-26T09:38:11.595Z,40.84
2023-03-26T09:40:58.023Z,40.36
2023-03-26T09:43:31.355Z,40.70
2023-03-26T09:46:08.441Z,39.80
2023-03-26T09:48:38.305Z,39.30
2023-03-26T09:51:08.067Z,38.64
2023-03-26T09:53:41.161Z,38.65
2023-03-26T09:56:14.191Z,39.85
2023-03-26T09:59:32.258Z,38.24
2023-03-26T10:02:46.575Z,37.99
2023-03-26T10:05:41.864Z,37.53
2023-03-26T10:08:47.587Z,36.89
2023-03-26T10:11:36.287Z,36.45
2023-03-26T10:14:19.835Z,36.79
2023-03-26T10:17:25.910Z,35.16
2023-03-26T10:20:09.841Z,34.69
2023-03-26T10:22:48.808Z,34.54
2023-03-26T10:25:32.168Z,34.63
2023-03-26T10:28:02.210Z,35.02
2023-03-26T10:31:07.809Z,35.25
2023-03-26T10:33:56.549Z,34.18
2023-03-26T10:36:35.136Z,34.07
2023-03-26T10:39:36.309Z,33.39
2023-03-26T10:42:07.920Z,33.13
2023-03-26T10:45:02.796Z,32.05
2023-03-26T10:48:03.436Z,31.79
2023-03-26T10:51:18.379Z,31.70
2023-03-26T10:54:01.073Z,32.41
2023-03-26T10:56:34.883Z,30.89
2023-03-26T10:59:22.507Z,30.84
2023-03-26T11:02:29.284Z,30.81
2023-03-26T11:05:38.986Z,30.27
2023-03-26T11:08:19.140Z,29.59
2023-03-26T11:11:04.356Z,29.74
2023-03-26T11:13:46.873Z,29.36
2023-03-26T11:16:33.986Z,28.68
2023-03-26T11:19:22.201Z,29.11
2023-03-26T11:22:03.850Z,28.84
2023-03-26T11:24:40.845Z,28.78
2023-03-26T11:27:20.887Z,27.69
2023-03-26T11:30:22.396Z,29.26
2023-03-26T11:32:55.750Z,29.48
2023-03-26T11:35:47.575Z,28.41
2023-03-26T11:38:33.777Z,27.03
2023-03-26T11:41:08.226Z,26.85
2023-03-26T11:44:03.634Z,28.73
2023-03-26T11:46:33.873Z,27.92
2023-03-26T11:49:09.470Z,28.13
2023-03-26T11:51:38.527Z,28.19
2023-03-26T11:54:06.580Z,28.54
2023-03-26T11:57:05.410Z,27.82
2023-03-26T11:59:45.194Z,27.77
2023-03-26T12:02:24.933Z,26.96
2023-03-26T12:04:55.683Z,27.56
2023-03-26T12:07:34.022Z,27.41
2023-03-26T12:10:18.684Z,25.64
2023-03-26T12:12:47.902Z,24.37
2023-03-26T12:15:17.355Z,24.68
2023-03-26T12:17:45.455Z,25.11
2023-03-26T12:20:26.577Z,26.03
2023-03-26T12:23:02.269Z,25.45
2023-03-26T12:25:42.801Z,25.56
2023-03-26T12:28:19.783Z,24.12
2023-03-26T12:31:01.284Z,23.01
2023-03-26T12:33:34.484Z,23.44
2023-03-26T12:36:37.201Z,23.41
2023-03-26T12:40:06.854Z,23.37
2023-03-26T12:44:50.756Z,22.83
2023-03-26T12:45:24.657Z,22.61
2023-03-26T12:48:00.156Z,23.68
2023-03-26T12:50:58.023Z,22.27
2023-03-26T12:53:44.872Z,22.35
2023-03-26T12:56:38.774Z,22.92
2023-03-26T12:59:18.661Z,22.33
2023-03-26T13:02:12.303Z,21.49
2023-03-26T13:05:05.647Z,21.69
2023-03-26T13:07:34.490Z,21.71
2023-03-26T13:10:01.476Z,21.75
2023-03-26T13:12:58.458Z,21.42
2023-03-26T13:15:33.328Z,21.43
2023-03-26T13:18:21.797Z,20.75
2023-03-26T13:20:55.140Z,20.66
2023-03-26T13:23:56.050Z,21.22
2023-03-26T13:26:47.453Z,20.92
2023-03-26T13:29:26.436Z,21.06
2023-03-26T13:31:53.552Z,21.15
2023-03-26T13:34:48.122Z,20.95
2023-03-26T13:37:45.713Z,20.68
2023-03-26T13:40:36.809Z,20.06
2023-03-26T13:43:38.283Z,19.88
2023-03-26T13:46:17.174Z,20.39
2023-03-26T13:48:56.376Z,21.07
2023-03-26T13:51:42.081Z,21.13
2023-03-26T13:54:24.525Z,21.39
2023-03-26T13:57:00.149Z,21.36
2023-03-26T13:59:36.274Z,21.12
2023-03-26T14:02:28.467Z,21.19
2023-03-26T14:05:04.989Z,20.92
2023-03-26T14:07:42.150Z,20.94
2023-03-26T14:10:15.415Z,21.60
2023-03-26T14:13:06.790Z,21.83
2023-03-26T14:15:50.658Z,21.26
2023-03-26T14:18:32.688Z,21.14
2023-03-26T14:21:21.965Z,21.28
2023-03-26T14:24:23.340Z,22.14
2023-03-26T14:26:59.643Z,21.75
2023-03-26T14:29:56.712Z,21.61
2023-03-26T14:32:39.665Z,22.24
2023-03-26T14:35:20.546Z,22.67
2023-03-26T14:38:18.392Z,22.61
2023-03-26T14:41:13.455Z,22.53
2023-03-26T14:44:04.557Z,22.16
2023-03-26T14:47:04.804Z,22.61
2023-03-26T14:49:47.739Z,22.48
2023-03-26T14:52:50.987Z,22.40
2023-03-26T14:55:46.100Z,22.27
2023-03-26T14:58:36.587Z,21.53
2023-03-26T15:01:51.505Z,20.94
2023-03-26T15:04:30.193Z,20.71
2023-03-26T15:07:05.996Z,21.09
2023-03-26T15:09:49.897Z,21.30
2023-03-26T15:13:07.963Z,21.63
2023-03-26T15:16:17.897Z,22.00
2023-03-26T15:19:19.070Z,22.87
2023-03-26T15:22:31.492Z,22.63
2023-03-26T15:25:24.704Z,22.82
2023-03-26T15:28:27.226Z,22.61
2023-03-26T15:31:11.648Z,23.13
2023-03-26T15:34:03.407Z,22.77
2023-03-26T15:36:54.533Z,23.29
2023-03-26T15:40:07.564Z,24.13
2023-03-26T15:43:14.072Z,24.75
2023-03-26T15:46:37.859Z,25.57
2023-03-26T15:49:25.699Z,25.86
2023-03-26T15:52:15.503Z,26.13
2023-03-26T15:55:01.538Z,26.49
2023-03-26T15:57:39.403Z,26.69
2023-03-26T16:00:25.423Z,26.73
2023-03-26T16:02:58.438Z,27.02
2023-03-26T16:05:53.703Z,26.87
2023-03-26T16:08:47.091Z,27.65
2023-03-26T16:11:15.674Z,26.97
2023-03-26T16:14:04.245Z,27.66
2023-03-26T16:16:56.545Z,27.73
2023-03-26T16:19:23.461Z,27.82
2023-03-26T16:22:04.556Z,27.75
2023-03-26T16:24:35.494Z,28.37
2023-03-26T16:27:10.838Z,28.35
2023-03-26T16:30:30.602Z,28.18
2023-03-26T16:33:11.096Z,28.18
2023-03-26T16:36:15.483Z,28.36
2023-03-26T16:39:00.950Z,29.13
2023-03-26T16:41:34.986Z,29.16
2023-03-26T16:44:17.521Z,28.76
2023-03-26T16:47:16.816Z,29.28
2023-03-26T16:50:14.812Z,29.60
2023-03-26T16:52:52.281Z,29.58
2023-03-26T16:55:25.774Z,29.23
2023-03-26T16:58:16.141Z,29.22
2023-03-26T17:01:04.713Z,29.45
2023-03-26T17:03:54.799Z,29.61
2023-03-26T17:06:36.766Z,29.99
2023-03-26T17:09:14.313Z,30.24
2023-03-26T17:11:41.173Z,31.13
2023-03-26T17:14:29.674Z,31.07
2023-03-26T17:17:02.886Z,31.25
2023-03-26T17:19:41.969Z,31.91
2023-03-26T17:22:35.577Z,32.33
2023-03-26T17:25:27.325Z,33.16
2023-03-26T17:28:21.478Z,33.87
2023-03-26T17:31:02.298Z,34.37
2023-03-26T17:33:36.339Z,34.92
2023-03-26T17:36:12.615Z,35.44
2023-03-26T17:38:39.569Z,35.69
2023-03-26T17:41:15.804Z,36.36
2023-03-26T17:43:44.036Z,36.63
2023-03-26T17:46:22.193Z,36.76
2023-03-26T17:49:11.802Z,37.26
2023-03-26T17:51:56.679Z,37.35
2023-03-26T17:54:30.836Z,37.18
2023-03-26T17:57:04.419Z,37.48
2023-03-26T17:59:33.499Z,37.46
2023-03-26T18:02:03.783Z,37.36
2023-03-26T18:04:45.414Z,37.87
2023-03-26T18:07:37.983Z,37.84
2023-03-26T18:10:29.235Z,37.61
2023-03-26T18:13:19.236Z,37.75
2023-03-26T18:15:55.588Z,38.29
2023-03-26T18:18:28.388Z,38.33
2023-03-26T18:20:58.535Z,38.21
2023-03-26T18:23:30.406Z,37.63
2023-03-26T18:26:15.699Z,37.96
2023-03-26T18:28:50.616Z,38.47
2023-03-26T18:31:24.204Z,38.76
2023-03-26T18:33:56.103Z,38.89
2023-03-26T18:36:27.972Z,39.21
2023-03-26T18:39:04.464Z,39.53
2023-03-26T18:41:37.552Z,39.78
2023-03-26T18:44:06.740Z,39.35
2023-03-26T18:46:34.331Z,39.51
2023-03-26T18:49:03.223Z,39.44
2023-03-26T18:51:33.009Z,39.77
2023-03-26T18:54:06.224Z,39.85
2023-03-26T18:56:36.938Z,40.50
2023-03-26T18:59:07.032Z,40.72
2023-03-26T19:01:37.645Z,40.73
2023-03-26T19:04:07.738Z,40.77
2023-03-26T19:06:38.891Z,40.61
2023-03-26T19:09:23.825Z,40.50
2023-03-26T19:11:58.508Z,40.39
2023-03-26T19:14:27.307Z,40.52
2023-03-26T19:17:00.312Z,40.42
2023-03-26T19:19:32.403Z,40.22
2023-03-26T19:21:59.784Z,40.15
2023-03-26T19:24:54.562Z,40.38
2023-03-26T19:27:46.666Z,40.28
2023-03-26T19:30:39.615Z,40.36
2023-03-26T19:33:18.656Z,43.53
2023-03-26T19:35:51.009Z,40.11
2023-03-26T19:38:27.387Z,39.61
2023-03-26T19:41:22.836Z,39.75
2023-03-26T19:44:00.650Z,40.00
2023-03-26T19:46:29.425Z,40.06
2023-03-26T19:48:57.907Z,41.26
2023-03-26T19:51:34.895Z,40.26
2023-03-26T19:54:16.203Z,40.15
2023-03-26T19:56:43.750Z,40.03
2023-03-26T19:59:11.030Z,39.93
2023-03-26T20:01:38.103Z,40.43
2023-03-26T20:04:06.964Z,40.75
2023-03-26T20:06:43.090Z,40.45
2023-03-26T20:11:56.533Z,41.26
2023-03-26T20:14:26.753Z,41.55
2023-03-26T20:16:55.399Z,41.33
2023-03-26T20:19:23.043Z,41.02
2023-03-26T20:21:51.547Z,41.81
2023-03-26T20:24:19.444Z,41.44
2023-03-26T20:26:46.718Z,41.58
2023-03-26T20:29:14.976Z,41.55
2023-03-26T20:31:51.345Z,41.92
2023-03-26T20:34:23.655Z,42.84
2023-03-26T20:37:01.130Z,44.08
2023-03-26T20:39:30.157Z,44.67
2023-03-26T20:41:57.272Z,45.42
2023-03-26T20:44:27.395Z,45.65
2023-03-26T20:46:56.375Z,45.97
2023-03-26T20:49:23.554Z,46.29
2023-03-26T20:51:50.576Z,46.52
2023-03-26T20:54:23.571Z,46.19
2023-03-26T20:56:51.317Z,46.06
2023-03-26T20:59:27.013Z,46.37
2023-03-26T21:01:56.990Z,46.67
2023-03-26T21:04:25.142Z,47.04
2023-03-26T21:06:57.639Z,47.39
2023-03-26T21:09:35.737Z,47.24
2023-03-26T21:12:17.038Z,47.08
2023-03-26T21:14:44.875Z,47.78
2023-03-26T21:17:18.551Z,47.72
2023-03-26T21:19:46.389Z,48.22
2023-03-26T21:22:20.240Z,48.74
2023-03-26T21:25:05.704Z,48.66
2023-03-26T21:27:41.704Z,49.60
2023-03-26T21:30:16.622Z,49.80
2023-03-26T21:32:45.720Z,50.05
2023-03-26T21:35:15.151Z,51.02
2023-03-26T21:37:44.389Z,51.38
2023-03-26T21:40:16.927Z,51.56
2023-03-26T21:42:46.581Z,51.24
2023-03-26T21:45:14.584Z,52.29
2023-03-26T21:47:42.549Z,51.70
2023-03-26T21:50:12.027Z,52.16
2023-03-26T21:52:47.143Z,51.85
2023-03-26T21:55:20.547Z,52.12
2023-03-26T21:58:38.364Z,52.55
2023-03-26T22:01:19.588Z,52.93
2023-03-26T22:03:58.865Z,52.69
2023-03-26T22:06:25.922Z,54.48
2023-03-26T22:08:53.028Z,53.66
2023-03-26T22:11:20.181Z,53.51
2023-03-26T22:13:47.133Z,53.26
2023-03-26T22:16:14.120Z,54.03
2023-03-26T22:18:43.918Z,54.68
2023-03-26T22:21:10.886Z,55.25
2023-03-26T22:23:38.916Z,55.61
2023-03-26T22:26:06.421Z,56.53
2023-03-26T22:28:33.669Z,56.42
2023-03-26T22:31:08.895Z,56.67
2023-03-26T22:33:36.338Z,55.91
2023-03-26T22:36:03.378Z,55.93
2023-03-26T22:38:30.345Z,56.30
2023-03-26T22:40:58.377Z,57.08
2023-03-26T22:43:25.430Z,56.87
2023-03-26T22:45:54.437Z,56.63
2023-03-26T22:48:23.700Z,56.83
2023-03-26T22:50:59.727Z,58.64
2023-03-26T22:53:26.632Z,58.02
2023-03-26T22:55:53.621Z,57.61
2023-03-26T22:58:20.570Z,57.89
2023-03-26T23:00:47.646Z,59.30
2023-03-26T23:03:14.559Z,58.90
2023-03-26T23:05:41.477Z,56.83
2023-03-26T23:08:08.419Z,59.21
2023-03-26T23:10:36.558Z,58.50
2023-03-26T23:13:03.503Z,59.21
2023-03-26T23:15:30.764Z,59.18
2023-03-26T23:17:59.081Z,60.36
2023-03-26T23:20:25.991Z,59.16
2023-03-26T23:22:52.983Z,60.34
2023-03-26T23:25:20.250Z,59.51
2023-03-26T23:27:48.567Z,59.23
2023-03-26T23:30:16.942Z,59.46
2023-03-26T23:32:44.217Z,59.18
2023-03-26T23:35:11.446Z,59.16
2023-03-26T23:37:38.406Z,58.98
2023-03-26T23:40:10.586Z,59.01
2023-03-26T23:42:38.022Z,56.96
2023-03-26T23:45:06.757Z,58.60
2023-03-26T23:47:34.759Z,59.60
2023-03-26T23:50:05.281Z,59.01
2023-03-26T23:52:32.302Z,59.60
2023-03-26T23:55:02.489Z,59.63
2023-03-26T23:57:30.720Z,59.42
2023-03-26T23:59:57.679Z,60.49
